sensor_id;sensor_type;location;lat;lon;timestamp;P1;durP1;ratioP1;P2;durP2;ratioP2
78563;SDS011;67856;47.754;19.088;2024-03-02T00:00:55;13.93;;;7.95;;
78563;SDS011;67856;47.754;19.088;2024-03-02T00:03:58;13.50;;;7.57;;
78563;SDS011;67856;47.754;19.088;2024-03-02T00:07:01;11.13;;;7.50;;
78563;SDS011;67856;47.754;19.088;2024-03-02T00:10:07;12.77;;;7.75;;
78563;SDS011;67856;47.754;19.088;2024-03-02T00:13:14;12.75;;;7.25;;
78563;SDS011;67856;47.754;19.088;2024-03-02T00:16:17;14.43;;;8.50;;
78563;SDS011;67856;47.754;19.088;2024-03-02T00:19:20;12.47;;;7.60;;
78563;SDS011;67856;47.754;19.088;2024-03-02T00:22:22;11.50;;;7.60;;
78563;SDS011;67856;47.754;19.088;2024-03-02T00:25:25;13.05;;;7.88;;
78563;SDS011;67856;47.754;19.088;2024-03-02T00:28:34;13.75;;;7.22;;
78563;SDS011;67856;47.754;19.088;2024-03-02T00:31:38;11.45;;;7.47;;
78563;SDS011;67856;47.754;19.088;2024-03-02T00:34:42;11.30;;;7.33;;
78563;SDS011;67856;47.754;19.088;2024-03-02T00:37:44;12.43;;;8.23;;
78563;SDS011;67856;47.754;19.088;2024-03-02T00:40:46;14.32;;;7.78;;
78563;SDS011;67856;47.754;19.088;2024-03-02T00:47:04;14.43;;;8.05;;
78563;SDS011;67856;47.754;19.088;2024-03-02T00:50:06;13.73;;;8.33;;
78563;SDS011;67856;47.754;19.088;2024-03-02T00:53:22;12.43;;;8.23;;
78563;SDS011;67856;47.754;19.088;2024-03-02T00:56:26;10.55;;;6.95;;
78563;SDS011;67856;47.754;19.088;2024-03-02T00:59:29;13.05;;;8.10;;
78563;SDS011;67856;47.754;19.088;2024-03-02T01:02:33;11.55;;;7.32;;
78563;SDS011;67856;47.754;19.088;2024-03-02T01:05:36;11.27;;;6.80;;
78563;SDS011;67856;47.754;19.088;2024-03-02T01:08:38;10.67;;;6.87;;
78563;SDS011;67856;47.754;19.088;2024-03-02T01:11:41;11.55;;;7.60;;
78563;SDS011;67856;47.754;19.088;2024-03-02T01:14:44;12.07;;;7.30;;
78563;SDS011;67856;47.754;19.088;2024-03-02T01:17:46;10.18;;;7.30;;
78563;SDS011;67856;47.754;19.088;2024-03-02T01:20:49;12.23;;;7.80;;
78563;SDS011;67856;47.754;19.088;2024-03-02T01:23:53;11.37;;;7.80;;
78563;SDS011;67856;47.754;19.088;2024-03-02T01:26:56;12.45;;;7.63;;
78563;SDS011;67856;47.754;19.088;2024-03-02T01:29:58;11.75;;;7.47;;
78563;SDS011;67856;47.754;19.088;2024-03-02T01:33:02;10.40;;;7.30;;
78563;SDS011;67856;47.754;19.088;2024-03-02T01:36:07;12.20;;;7.40;;
78563;SDS011;67856;47.754;19.088;2024-03-02T01:39:10;10.60;;;7.00;;
78563;SDS011;67856;47.754;19.088;2024-03-02T01:42:13;12.80;;;7.18;;
78563;SDS011;67856;47.754;19.088;2024-03-02T01:45:15;12.10;;;6.78;;
78563;SDS011;67856;47.754;19.088;2024-03-02T01:48:18;11.50;;;6.63;;
78563;SDS011;67856;47.754;19.088;2024-03-02T01:51:21;11.73;;;7.47;;
78563;SDS011;67856;47.754;19.088;2024-03-02T01:54:24;11.57;;;7.60;;
78563;SDS011;67856;47.754;19.088;2024-03-02T01:57:26;12.43;;;7.93;;
78563;SDS011;67856;47.754;19.088;2024-03-02T02:00:29;11.73;;;7.60;;
78563;SDS011;67856;47.754;19.088;2024-03-02T02:03:32;11.45;;;7.47;;
78563;SDS011;67856;47.754;19.088;2024-03-02T02:06:34;11.33;;;6.67;;
78563;SDS011;67856;47.754;19.088;2024-03-02T02:09:37;9.63;;;6.83;;
78563;SDS011;67856;47.754;19.088;2024-03-02T02:12:39;11.60;;;7.30;;
78563;SDS011;67856;47.754;19.088;2024-03-02T02:15:42;11.32;;;7.13;;
78563;SDS011;67856;47.754;19.088;2024-03-02T02:18:45;11.20;;;7.10;;
78563;SDS011;67856;47.754;19.088;2024-03-02T02:21:47;11.33;;;7.20;;
78563;SDS011;67856;47.754;19.088;2024-03-02T02:24:50;11.93;;;6.90;;
78563;SDS011;67856;47.754;19.088;2024-03-02T02:27:52;9.82;;;6.60;;
78563;SDS011;67856;47.754;19.088;2024-03-02T02:30:55;12.35;;;7.32;;
78563;SDS011;67856;47.754;19.088;2024-03-02T02:33:58;9.98;;;6.85;;
78563;SDS011;67856;47.754;19.088;2024-03-02T02:37:01;9.60;;;6.63;;
78563;SDS011;67856;47.754;19.088;2024-03-02T02:40:03;10.07;;;7.07;;
78563;SDS011;67856;47.754;19.088;2024-03-02T02:43:07;10.63;;;7.13;;
78563;SDS011;67856;47.754;19.088;2024-03-02T02:46:09;11.65;;;6.90;;
78563;SDS011;67856;47.754;19.088;2024-03-02T02:49:12;11.65;;;7.60;;
78563;SDS011;67856;47.754;19.088;2024-03-02T02:52:14;9.87;;;6.37;;
78563;SDS011;67856;47.754;19.088;2024-03-02T02:55:16;11.53;;;6.63;;
78563;SDS011;67856;47.754;19.088;2024-03-02T02:58:20;9.88;;;6.95;;
78563;SDS011;67856;47.754;19.088;2024-03-02T03:01:22;11.77;;;7.20;;
78563;SDS011;67856;47.754;19.088;2024-03-02T03:04:25;11.13;;;7.00;;
78563;SDS011;67856;47.754;19.088;2024-03-02T03:07:27;10.73;;;6.73;;
78563;SDS011;67856;47.754;19.088;2024-03-02T03:10:30;10.53;;;6.80;;
78563;SDS011;67856;47.754;19.088;2024-03-02T03:13:33;9.20;;;6.40;;
78563;SDS011;67856;47.754;19.088;2024-03-02T03:16:36;10.20;;;6.35;;
78563;SDS011;67856;47.754;19.088;2024-03-02T03:19:38;9.70;;;6.55;;
78563;SDS011;67856;47.754;19.088;2024-03-02T03:22:41;8.90;;;6.77;;
78563;SDS011;67856;47.754;19.088;2024-03-02T03:25:44;9.83;;;6.77;;
78563;SDS011;67856;47.754;19.088;2024-03-02T03:28:46;10.07;;;6.88;;
78563;SDS011;67856;47.754;19.088;2024-03-02T03:31:49;11.43;;;6.53;;
78563;SDS011;67856;47.754;19.088;2024-03-02T03:34:51;9.85;;;6.28;;
78563;SDS011;67856;47.754;19.088;2024-03-02T03:37:53;10.17;;;6.40;;
78563;SDS011;67856;47.754;19.088;2024-03-02T03:40:56;11.40;;;6.70;;
78563;SDS011;67856;47.754;19.088;2024-03-02T03:43:58;9.80;;;6.72;;
78563;SDS011;67856;47.754;19.088;2024-03-02T03:47:01;10.52;;;7.00;;
78563;SDS011;67856;47.754;19.088;2024-03-02T03:50:05;13.00;;;7.50;;
78563;SDS011;67856;47.754;19.088;2024-03-02T03:53:09;10.83;;;6.90;;
78563;SDS011;67856;47.754;19.088;2024-03-02T03:56:12;9.60;;;6.63;;
78563;SDS011;67856;47.754;19.088;2024-03-02T03:59:15;12.00;;;7.55;;
78563;SDS011;67856;47.754;19.088;2024-03-02T04:02:17;10.25;;;6.70;;
78563;SDS011;67856;47.754;19.088;2024-03-02T04:05:20;11.50;;;6.53;;
78563;SDS011;67856;47.754;19.088;2024-03-02T04:08:22;11.43;;;6.80;;
78563;SDS011;67856;47.754;19.088;2024-03-02T04:11:25;12.87;;;6.63;;
78563;SDS011;67856;47.754;19.088;2024-03-02T04:14:27;11.00;;;6.68;;
78563;SDS011;67856;47.754;19.088;2024-03-02T04:17:31;10.40;;;6.68;;
78563;SDS011;67856;47.754;19.088;2024-03-02T04:20:34;10.43;;;6.70;;
78563;SDS011;67856;47.754;19.088;2024-03-02T04:23:37;10.77;;;6.77;;
78563;SDS011;67856;47.754;19.088;2024-03-02T04:26:40;9.73;;;6.40;;
78563;SDS011;67856;47.754;19.088;2024-03-02T04:29:42;9.82;;;6.40;;
78563;SDS011;67856;47.754;19.088;2024-03-02T04:32:44;9.50;;;6.45;;
78563;SDS011;67856;47.754;19.088;2024-03-02T04:35:49;9.38;;;6.13;;
78563;SDS011;67856;47.754;19.088;2024-03-02T04:38:51;10.03;;;6.43;;
78563;SDS011;67856;47.754;19.088;2024-03-02T04:41:53;9.23;;;5.83;;
78563;SDS011;67856;47.754;19.088;2024-03-02T04:44:56;10.23;;;6.20;;
78563;SDS011;67856;47.754;19.088;2024-03-02T04:47:58;10.18;;;6.47;;
78563;SDS011;67856;47.754;19.088;2024-03-02T04:51:00;9.95;;;6.57;;
78563;SDS011;67856;47.754;19.088;2024-03-02T04:54:03;11.73;;;6.97;;
78563;SDS011;67856;47.754;19.088;2024-03-02T04:57:06;10.80;;;6.60;;
78563;SDS011;67856;47.754;19.088;2024-03-02T05:00:08;10.63;;;6.75;;
78563;SDS011;67856;47.754;19.088;2024-03-02T05:03:12;10.27;;;6.50;;
78563;SDS011;67856;47.754;19.088;2024-03-02T05:06:15;10.55;;;6.88;;
78563;SDS011;67856;47.754;19.088;2024-03-02T05:09:17;10.47;;;6.43;;
78563;SDS011;67856;47.754;19.088;2024-03-02T05:12:21;11.57;;;6.70;;
78563;SDS011;67856;47.754;19.088;2024-03-02T05:15:42;10.90;;;6.35;;
78563;SDS011;67856;47.754;19.088;2024-03-02T05:18:45;10.07;;;6.57;;
78563;SDS011;67856;47.754;19.088;2024-03-02T05:21:48;9.60;;;6.25;;
78563;SDS011;67856;47.754;19.088;2024-03-02T05:24:50;9.37;;;6.50;;
78563;SDS011;67856;47.754;19.088;2024-03-02T05:27:53;10.57;;;6.60;;
78563;SDS011;67856;47.754;19.088;2024-03-02T05:30:56;10.90;;;6.47;;
78563;SDS011;67856;47.754;19.088;2024-03-02T05:33:58;9.55;;;6.32;;
78563;SDS011;67856;47.754;19.088;2024-03-02T05:37:01;10.13;;;6.80;;
78563;SDS011;67856;47.754;19.088;2024-03-02T05:40:04;9.67;;;6.47;;
78563;SDS011;67856;47.754;19.088;2024-03-02T05:43:08;9.90;;;6.67;;
78563;SDS011;67856;47.754;19.088;2024-03-02T05:46:10;10.35;;;6.32;;
78563;SDS011;67856;47.754;19.088;2024-03-02T05:49:12;11.23;;;6.63;;
78563;SDS011;67856;47.754;19.088;2024-03-02T05:52:15;9.73;;;6.53;;
78563;SDS011;67856;47.754;19.088;2024-03-02T05:55:17;10.50;;;6.60;;
78563;SDS011;67856;47.754;19.088;2024-03-02T05:58:19;10.07;;;6.40;;
78563;SDS011;67856;47.754;19.088;2024-03-02T06:01:44;8.70;;;6.25;;
78563;SDS011;67856;47.754;19.088;2024-03-02T06:04:48;7.90;;;5.85;;
78563;SDS011;67856;47.754;19.088;2024-03-02T06:07:51;9.82;;;6.00;;
78563;SDS011;67856;47.754;19.088;2024-03-02T06:10:53;10.73;;;6.90;;
78563;SDS011;67856;47.754;19.088;2024-03-02T06:13:59;10.83;;;6.60;;
78563;SDS011;67856;47.754;19.088;2024-03-02T06:17:01;8.68;;;5.78;;
78563;SDS011;67856;47.754;19.088;2024-03-02T06:20:04;9.88;;;6.55;;
78563;SDS011;67856;47.754;19.088;2024-03-02T06:23:07;9.52;;;5.90;;
78563;SDS011;67856;47.754;19.088;2024-03-02T06:26:09;9.33;;;6.33;;
78563;SDS011;67856;47.754;19.088;2024-03-02T06:29:12;8.37;;;6.00;;
78563;SDS011;67856;47.754;19.088;2024-03-02T06:32:14;8.77;;;6.00;;
78563;SDS011;67856;47.754;19.088;2024-03-02T06:35:16;9.35;;;6.20;;
78563;SDS011;67856;47.754;19.088;2024-03-02T06:38:19;10.20;;;6.32;;
78563;SDS011;67856;47.754;19.088;2024-03-02T06:41:21;9.03;;;5.80;;
78563;SDS011;67856;47.754;19.088;2024-03-02T06:44:24;9.07;;;6.00;;
78563;SDS011;67856;47.754;19.088;2024-03-02T06:47:26;7.95;;;5.50;;
78563;SDS011;67856;47.754;19.088;2024-03-02T06:50:29;7.97;;;5.47;;
78563;SDS011;67856;47.754;19.088;2024-03-02T06:53:31;8.30;;;5.90;;
78563;SDS011;67856;47.754;19.088;2024-03-02T06:56:36;8.73;;;5.90;;
78563;SDS011;67856;47.754;19.088;2024-03-02T06:59:39;9.83;;;5.90;;
78563;SDS011;67856;47.754;19.088;2024-03-02T07:02:42;8.25;;;6.00;;
78563;SDS011;67856;47.754;19.088;2024-03-02T07:05:44;9.80;;;5.90;;
78563;SDS011;67856;47.754;19.088;2024-03-02T07:08:46;8.55;;;5.90;;
78563;SDS011;67856;47.754;19.088;2024-03-02T07:11:49;8.93;;;6.20;;
78563;SDS011;67856;47.754;19.088;2024-03-02T07:14:53;10.23;;;6.00;;
78563;SDS011;67856;47.754;19.088;2024-03-02T07:17:58;8.73;;;5.82;;
78563;SDS011;67856;47.754;19.088;2024-03-02T07:21:01;9.30;;;5.72;;
78563;SDS011;67856;47.754;19.088;2024-03-02T07:24:03;9.30;;;5.80;;
78563;SDS011;67856;47.754;19.088;2024-03-02T07:27:06;8.10;;;5.43;;
78563;SDS011;67856;47.754;19.088;2024-03-02T07:30:09;8.97;;;6.00;;
78563;SDS011;67856;47.754;19.088;2024-03-02T07:33:13;8.02;;;5.28;;
78563;SDS011;67856;47.754;19.088;2024-03-02T07:36:15;8.77;;;5.88;;
78563;SDS011;67856;47.754;19.088;2024-03-02T07:39:18;9.45;;;5.95;;
78563;SDS011;67856;47.754;19.088;2024-03-02T07:42:21;8.77;;;5.83;;
78563;SDS011;67856;47.754;19.088;2024-03-02T07:45:24;9.53;;;5.30;;
78563;SDS011;67856;47.754;19.088;2024-03-02T07:48:26;10.27;;;6.38;;
78563;SDS011;67856;47.754;19.088;2024-03-02T07:51:29;7.60;;;5.32;;
78563;SDS011;67856;47.754;19.088;2024-03-02T07:54:31;7.53;;;5.38;;
78563;SDS011;67856;47.754;19.088;2024-03-02T07:57:34;8.97;;;5.87;;
78563;SDS011;67856;47.754;19.088;2024-03-02T08:00:38;8.30;;;5.70;;
78563;SDS011;67856;47.754;19.088;2024-03-02T08:03:41;8.32;;;5.50;;
78563;SDS011;67856;47.754;19.088;2024-03-02T08:06:45;8.45;;;5.43;;
78563;SDS011;67856;47.754;19.088;2024-03-02T08:09:47;8.38;;;5.63;;
78563;SDS011;67856;47.754;19.088;2024-03-02T08:12:50;8.23;;;5.73;;
78563;SDS011;67856;47.754;19.088;2024-03-02T08:15:52;7.60;;;5.33;;
78563;SDS011;67856;47.754;19.088;2024-03-02T08:18:55;7.82;;;5.43;;
78563;SDS011;67856;47.754;19.088;2024-03-02T08:22:00;8.50;;;5.35;;
78563;SDS011;67856;47.754;19.088;2024-03-02T08:25:03;9.00;;;5.70;;
78563;SDS011;67856;47.754;19.088;2024-03-02T08:28:06;9.07;;;5.70;;
78563;SDS011;67856;47.754;19.088;2024-03-02T08:31:08;8.43;;;5.93;;
78563;SDS011;67856;47.754;19.088;2024-03-02T08:34:11;7.72;;;5.20;;
78563;SDS011;67856;47.754;19.088;2024-03-02T08:37:14;8.45;;;5.53;;
78563;SDS011;67856;47.754;19.088;2024-03-02T08:40:16;7.63;;;5.65;;
78563;SDS011;67856;47.754;19.088;2024-03-02T08:43:20;8.20;;;5.83;;
78563;SDS011;67856;47.754;19.088;2024-03-02T08:46:24;8.57;;;5.77;;
78563;SDS011;67856;47.754;19.088;2024-03-02T08:49:27;9.93;;;6.05;;
78563;SDS011;67856;47.754;19.088;2024-03-02T08:52:29;11.30;;;6.30;;
78563;SDS011;67856;47.754;19.088;2024-03-02T08:55:31;9.82;;;5.88;;
78563;SDS011;67856;47.754;19.088;2024-03-02T08:58:34;8.67;;;5.43;;
78563;SDS011;67856;47.754;19.088;2024-03-02T09:01:36;8.67;;;5.90;;
78563;SDS011;67856;47.754;19.088;2024-03-02T09:04:43;9.82;;;6.28;;
78563;SDS011;67856;47.754;19.088;2024-03-02T09:07:46;9.13;;;5.82;;
78563;SDS011;67856;47.754;19.088;2024-03-02T09:10:48;8.52;;;5.88;;
78563;SDS011;67856;47.754;19.088;2024-03-02T09:13:51;9.70;;;6.07;;
78563;SDS011;67856;47.754;19.088;2024-03-02T09:16:53;9.07;;;6.10;;
78563;SDS011;67856;47.754;19.088;2024-03-02T09:19:56;8.25;;;5.80;;
78563;SDS011;67856;47.754;19.088;2024-03-02T09:22:58;7.95;;;5.63;;
78563;SDS011;67856;47.754;19.088;2024-03-02T09:26:00;8.50;;;5.30;;
78563;SDS011;67856;47.754;19.088;2024-03-02T09:29:03;8.83;;;5.77;;
78563;SDS011;67856;47.754;19.088;2024-03-02T09:32:07;8.63;;;5.53;;
78563;SDS011;67856;47.754;19.088;2024-03-02T09:35:10;7.82;;;5.55;;
78563;SDS011;67856;47.754;19.088;2024-03-02T09:38:14;8.38;;;5.95;;
78563;SDS011;67856;47.754;19.088;2024-03-02T09:41:16;8.70;;;5.63;;
78563;SDS011;67856;47.754;19.088;2024-03-02T09:44:19;8.20;;;5.57;;
78563;SDS011;67856;47.754;19.088;2024-03-02T09:47:22;7.60;;;5.60;;
78563;SDS011;67856;47.754;19.088;2024-03-02T09:50:24;8.75;;;5.55;;
78563;SDS011;67856;47.754;19.088;2024-03-02T09:53:28;8.52;;;5.88;;
78563;SDS011;67856;47.754;19.088;2024-03-02T09:56:33;9.02;;;5.78;;
78563;SDS011;67856;47.754;19.088;2024-03-02T09:59:36;7.60;;;5.30;;
78563;SDS011;67856;47.754;19.088;2024-03-02T10:02:38;8.70;;;5.30;;
78563;SDS011;67856;47.754;19.088;2024-03-02T10:05:41;8.88;;;5.78;;
78563;SDS011;67856;47.754;19.088;2024-03-02T10:08:43;8.52;;;5.80;;
78563;SDS011;67856;47.754;19.088;2024-03-02T10:11:46;7.95;;;5.43;;
78563;SDS011;67856;47.754;19.088;2024-03-02T10:14:48;8.93;;;6.03;;
78563;SDS011;67856;47.754;19.088;2024-03-02T10:17:52;8.23;;;5.67;;
78563;SDS011;67856;47.754;19.088;2024-03-02T10:20:55;8.07;;;5.47;;
78563;SDS011;67856;47.754;19.088;2024-03-02T10:24:06;9.90;;;5.53;;
78563;SDS011;67856;47.754;19.088;2024-03-02T10:30:25;7.73;;;5.30;;
78563;SDS011;67856;47.754;19.088;2024-03-02T10:33:28;7.50;;;5.20;;
78563;SDS011;67856;47.754;19.088;2024-03-02T10:36:30;8.02;;;5.45;;
78563;SDS011;67856;47.754;19.088;2024-03-02T10:39:36;7.93;;;5.25;;
78563;SDS011;67856;47.754;19.088;2024-03-02T10:42:44;7.10;;;5.30;;
78563;SDS011;67856;47.754;19.088;2024-03-02T10:45:47;8.50;;;5.23;;
78563;SDS011;67856;47.754;19.088;2024-03-02T10:48:51;7.67;;;5.17;;
78563;SDS011;67856;47.754;19.088;2024-03-02T10:51:54;8.68;;;5.70;;
78563;SDS011;67856;47.754;19.088;2024-03-02T10:54:56;7.45;;;5.00;;
78563;SDS011;67856;47.754;19.088;2024-03-02T10:57:59;9.00;;;5.85;;
78563;SDS011;67856;47.754;19.088;2024-03-02T11:01:05;6.87;;;4.90;;
78563;SDS011;67856;47.754;19.088;2024-03-02T11:04:08;7.60;;;5.00;;
78563;SDS011;67856;47.754;19.088;2024-03-02T11:07:11;7.97;;;5.10;;
78563;SDS011;67856;47.754;19.088;2024-03-02T11:10:14;7.93;;;5.05;;
78563;SDS011;67856;47.754;19.088;2024-03-02T11:13:18;7.70;;;5.10;;
78563;SDS011;67856;47.754;19.088;2024-03-02T11:19:32;7.77;;;4.93;;
78563;SDS011;67856;47.754;19.088;2024-03-02T11:22:36;8.23;;;5.20;;
78563;SDS011;67856;47.754;19.088;2024-03-02T11:25:39;7.57;;;4.97;;
78563;SDS011;67856;47.754;19.088;2024-03-02T11:28:41;7.18;;;4.90;;
78563;SDS011;67856;47.754;19.088;2024-03-02T11:31:59;7.20;;;5.07;;
78563;SDS011;67856;47.754;19.088;2024-03-02T11:35:04;7.10;;;4.70;;
78563;SDS011;67856;47.754;19.088;2024-03-02T11:38:09;8.57;;;5.68;;
78563;SDS011;67856;47.754;19.088;2024-03-02T11:41:12;7.30;;;5.10;;
78563;SDS011;67856;47.754;19.088;2024-03-02T11:44:16;7.32;;;5.10;;
78563;SDS011;67856;47.754;19.088;2024-03-02T11:47:18;7.77;;;5.03;;
78563;SDS011;67856;47.754;19.088;2024-03-02T11:50:31;6.67;;;4.63;;
78563;SDS011;67856;47.754;19.088;2024-03-02T11:53:35;6.65;;;4.60;;
78563;SDS011;67856;47.754;19.088;2024-03-02T11:56:42;6.72;;;4.57;;
78563;SDS011;67856;47.754;19.088;2024-03-02T11:59:44;7.32;;;4.95;;
78563;SDS011;67856;47.754;19.088;2024-03-02T12:06:11;6.90;;;4.70;;
78563;SDS011;67856;47.754;19.088;2024-03-02T12:09:15;7.40;;;5.00;;
78563;SDS011;67856;47.754;19.088;2024-03-02T12:12:17;7.65;;;5.00;;
78563;SDS011;67856;47.754;19.088;2024-03-02T12:15:26;7.68;;;4.68;;
78563;SDS011;67856;47.754;19.088;2024-03-02T12:18:33;7.07;;;4.67;;
78563;SDS011;67856;47.754;19.088;2024-03-02T12:21:35;6.47;;;4.60;;
78563;SDS011;67856;47.754;19.088;2024-03-02T12:24:39;6.78;;;4.68;;
78563;SDS011;67856;47.754;19.088;2024-03-02T12:27:42;6.20;;;4.68;;
78563;SDS011;67856;47.754;19.088;2024-03-02T12:30:45;7.10;;;4.70;;
78563;SDS011;67856;47.754;19.088;2024-03-02T12:33:50;6.63;;;4.83;;
78563;SDS011;67856;47.754;19.088;2024-03-02T12:36:53;6.97;;;5.20;;
78563;SDS011;67856;47.754;19.088;2024-03-02T12:39:55;7.57;;;5.15;;
78563;SDS011;67856;47.754;19.088;2024-03-02T12:42:58;7.15;;;4.80;;
78563;SDS011;67856;47.754;19.088;2024-03-02T12:46:01;6.93;;;5.13;;
78563;SDS011;67856;47.754;19.088;2024-03-02T12:49:08;6.73;;;5.00;;
78563;SDS011;67856;47.754;19.088;2024-03-02T12:52:13;6.57;;;4.70;;
78563;SDS011;67856;47.754;19.088;2024-03-02T12:55:15;7.75;;;5.20;;
78563;SDS011;67856;47.754;19.088;2024-03-02T12:58:19;6.22;;;4.80;;
78563;SDS011;67856;47.754;19.088;2024-03-02T13:01:23;6.80;;;4.90;;
78563;SDS011;67856;47.754;19.088;2024-03-02T13:04:27;7.07;;;4.90;;
78563;SDS011;67856;47.754;19.088;2024-03-02T13:07:30;8.30;;;5.37;;
78563;SDS011;67856;47.754;19.088;2024-03-02T13:10:33;7.32;;;5.30;;
78563;SDS011;67856;47.754;19.088;2024-03-02T13:13:35;7.65;;;5.32;;
78563;SDS011;67856;47.754;19.088;2024-03-02T13:16:41;8.50;;;6.40;;
78563;SDS011;67856;47.754;19.088;2024-03-02T13:19:55;8.10;;;6.13;;
78563;SDS011;67856;47.754;19.088;2024-03-02T13:22:58;8.20;;;5.83;;
78563;SDS011;67856;47.754;19.088;2024-03-02T13:26:01;9.07;;;5.72;;
78563;SDS011;67856;47.754;19.088;2024-03-02T13:29:03;8.00;;;5.72;;
78563;SDS011;67856;47.754;19.088;2024-03-02T13:32:06;6.82;;;4.82;;
78563;SDS011;67856;47.754;19.088;2024-03-02T13:35:09;7.40;;;4.93;;
78563;SDS011;67856;47.754;19.088;2024-03-02T13:38:13;6.90;;;4.67;;
78563;SDS011;67856;47.754;19.088;2024-03-02T13:41:15;6.30;;;4.60;;
78563;SDS011;67856;47.754;19.088;2024-03-02T13:44:21;6.53;;;4.50;;
78563;SDS011;67856;47.754;19.088;2024-03-02T13:47:23;7.13;;;4.40;;
78563;SDS011;67856;47.754;19.088;2024-03-02T13:50:26;5.87;;;4.40;;
78563;SDS011;67856;47.754;19.088;2024-03-02T13:53:28;6.30;;;4.00;;
78563;SDS011;67856;47.754;19.088;2024-03-02T13:56:31;6.45;;;4.50;;
78563;SDS011;67856;47.754;19.088;2024-03-02T13:59:34;6.03;;;4.38;;
78563;SDS011;67856;47.754;19.088;2024-03-02T14:02:37;6.78;;;4.85;;
78563;SDS011;67856;47.754;19.088;2024-03-02T14:05:40;6.50;;;4.47;;
78563;SDS011;67856;47.754;19.088;2024-03-02T14:08:43;6.87;;;4.17;;
78563;SDS011;67856;47.754;19.088;2024-03-02T14:11:46;6.38;;;4.25;;
78563;SDS011;67856;47.754;19.088;2024-03-02T14:14:49;6.43;;;4.70;;
78563;SDS011;67856;47.754;19.088;2024-03-02T14:17:53;6.00;;;4.55;;
78563;SDS011;67856;47.754;19.088;2024-03-02T14:20:56;6.60;;;4.80;;
78563;SDS011;67856;47.754;19.088;2024-03-02T14:23:58;6.97;;;4.80;;
78563;SDS011;67856;47.754;19.088;2024-03-02T14:27:01;7.32;;;4.82;;
78563;SDS011;67856;47.754;19.088;2024-03-02T14:30:25;6.85;;;4.97;;
78563;SDS011;67856;47.754;19.088;2024-03-02T14:33:28;6.90;;;4.80;;
78563;SDS011;67856;47.754;19.088;2024-03-02T14:36:30;6.37;;;4.83;;
78563;SDS011;67856;47.754;19.088;2024-03-02T14:39:36;7.53;;;4.70;;
78563;SDS011;67856;47.754;19.088;2024-03-02T14:42:39;6.97;;;4.78;;
78563;SDS011;67856;47.754;19.088;2024-03-02T14:45:41;7.68;;;4.78;;
78563;SDS011;67856;47.754;19.088;2024-03-02T14:48:45;6.53;;;4.80;;
78563;SDS011;67856;47.754;19.088;2024-03-02T14:51:48;5.80;;;4.30;;
78563;SDS011;67856;47.754;19.088;2024-03-02T14:54:51;6.97;;;4.90;;
78563;SDS011;67856;47.754;19.088;2024-03-02T14:57:54;7.22;;;4.90;;
78563;SDS011;67856;47.754;19.088;2024-03-02T15:00:56;6.95;;;4.57;;
78563;SDS011;67856;47.754;19.088;2024-03-02T15:04:02;7.28;;;4.80;;
78563;SDS011;67856;47.754;19.088;2024-03-02T15:07:04;5.93;;;4.33;;
78563;SDS011;67856;47.754;19.088;2024-03-02T15:10:07;9.07;;;5.27;;
78563;SDS011;67856;47.754;19.088;2024-03-02T15:13:10;8.75;;;5.40;;
78563;SDS011;67856;47.754;19.088;2024-03-02T15:16:13;6.93;;;5.00;;
78563;SDS011;67856;47.754;19.088;2024-03-02T15:19:16;6.53;;;4.72;;
78563;SDS011;67856;47.754;19.088;2024-03-02T15:22:18;6.97;;;4.77;;
78563;SDS011;67856;47.754;19.088;2024-03-02T15:25:21;7.73;;;5.00;;
78563;SDS011;67856;47.754;19.088;2024-03-02T15:28:23;7.57;;;5.00;;
78563;SDS011;67856;47.754;19.088;2024-03-02T15:31:26;6.95;;;4.57;;
78563;SDS011;67856;47.754;19.088;2024-03-02T15:34:29;6.88;;;4.95;;
78563;SDS011;67856;47.754;19.088;2024-03-02T15:37:31;6.77;;;4.90;;
78563;SDS011;67856;47.754;19.088;2024-03-02T15:40:34;7.37;;;5.13;;
78563;SDS011;67856;47.754;19.088;2024-03-02T15:43:36;7.38;;;4.80;;
78563;SDS011;67856;47.754;19.088;2024-03-02T15:46:41;7.35;;;4.78;;
78563;SDS011;67856;47.754;19.088;2024-03-02T15:49:44;7.90;;;5.38;;
78563;SDS011;67856;47.754;19.088;2024-03-02T15:52:47;7.47;;;4.77;;
78563;SDS011;67856;47.754;19.088;2024-03-02T15:55:49;7.00;;;4.57;;
78563;SDS011;67856;47.754;19.088;2024-03-02T15:58:52;6.60;;;4.47;;
78563;SDS011;67856;47.754;19.088;2024-03-02T16:01:54;6.97;;;4.95;;
78563;SDS011;67856;47.754;19.088;2024-03-02T16:04:59;6.70;;;5.05;;
78563;SDS011;67856;47.754;19.088;2024-03-02T16:08:02;7.47;;;5.00;;
78563;SDS011;67856;47.754;19.088;2024-03-02T16:11:05;6.27;;;4.50;;
78563;SDS011;67856;47.754;19.088;2024-03-02T16:14:08;7.47;;;4.70;;
78563;SDS011;67856;47.754;19.088;2024-03-02T16:17:10;9.68;;;5.78;;
78563;SDS011;67856;47.754;19.088;2024-03-02T16:20:13;8.73;;;5.45;;
78563;SDS011;67856;47.754;19.088;2024-03-02T16:23:15;7.20;;;5.07;;
78563;SDS011;67856;47.754;19.088;2024-03-02T16:26:18;6.77;;;4.67;;
78563;SDS011;67856;47.754;19.088;2024-03-02T16:29:20;7.47;;;4.88;;
78563;SDS011;67856;47.754;19.088;2024-03-02T16:32:23;6.57;;;4.60;;
78563;SDS011;67856;47.754;19.088;2024-03-02T16:35:25;6.80;;;5.03;;
78563;SDS011;67856;47.754;19.088;2024-03-02T16:38:28;6.43;;;4.47;;
78563;SDS011;67856;47.754;19.088;2024-03-02T16:41:30;7.13;;;4.90;;
78563;SDS011;67856;47.754;19.088;2024-03-02T16:44:35;7.65;;;4.97;;
78563;SDS011;67856;47.754;19.088;2024-03-02T16:47:39;7.18;;;4.65;;
78563;SDS011;67856;47.754;19.088;2024-03-02T16:50:44;6.80;;;4.97;;
78563;SDS011;67856;47.754;19.088;2024-03-02T16:53:47;8.10;;;4.60;;
78563;SDS011;67856;47.754;19.088;2024-03-02T16:56:49;7.47;;;5.07;;
78563;SDS011;67856;47.754;19.088;2024-03-02T16:59:52;7.00;;;5.10;;
78563;SDS011;67856;47.754;19.088;2024-03-02T17:02:55;6.40;;;4.72;;
78563;SDS011;67856;47.754;19.088;2024-03-02T17:05:58;7.10;;;5.40;;
78563;SDS011;67856;47.754;19.088;2024-03-02T17:09:00;6.87;;;4.93;;
78563;SDS011;67856;47.754;19.088;2024-03-02T17:12:03;7.37;;;4.90;;
78563;SDS011;67856;47.754;19.088;2024-03-02T17:15:06;6.90;;;4.80;;
78563;SDS011;67856;47.754;19.088;2024-03-02T17:18:09;7.70;;;4.65;;
78563;SDS011;67856;47.754;19.088;2024-03-02T17:21:11;7.72;;;4.90;;
78563;SDS011;67856;47.754;19.088;2024-03-02T17:24:14;7.43;;;4.90;;
78563;SDS011;67856;47.754;19.088;2024-03-02T17:27:16;8.00;;;5.10;;
78563;SDS011;67856;47.754;19.088;2024-03-02T17:30:20;6.65;;;4.95;;
78563;SDS011;67856;47.754;19.088;2024-03-02T17:33:23;8.38;;;5.00;;
78563;SDS011;67856;47.754;19.088;2024-03-02T17:36:26;7.40;;;5.25;;
78563;SDS011;67856;47.754;19.088;2024-03-02T17:39:28;7.47;;;5.03;;
78563;SDS011;67856;47.754;19.088;2024-03-02T17:42:31;6.90;;;4.70;;
78563;SDS011;67856;47.754;19.088;2024-03-02T17:45:34;7.70;;;4.93;;
78563;SDS011;67856;47.754;19.088;2024-03-02T17:48:36;7.00;;;4.75;;
78563;SDS011;67856;47.754;19.088;2024-03-02T17:51:38;7.13;;;4.65;;
78563;SDS011;67856;47.754;19.088;2024-03-02T17:54:41;6.50;;;4.40;;
78563;SDS011;67856;47.754;19.088;2024-03-02T17:57:44;8.73;;;4.90;;
78563;SDS011;67856;47.754;19.088;2024-03-02T18:00:46;7.43;;;4.70;;
78563;SDS011;67856;47.754;19.088;2024-03-02T18:03:49;7.43;;;4.85;;
78563;SDS011;67856;47.754;19.088;2024-03-02T18:06:52;7.97;;;4.95;;
78563;SDS011;67856;47.754;19.088;2024-03-02T18:09:55;6.30;;;4.70;;
78563;SDS011;67856;47.754;19.088;2024-03-02T18:13:02;7.67;;;4.93;;
78563;SDS011;67856;47.754;19.088;2024-03-02T18:16:05;7.70;;;4.55;;